sensor_id;sensor_type;location;lat;lon;timestamp;temperature;humidity
9544;DHT22;30418;51.45933468;7.33152330;2023-06-22T00:01:26;27.80;45.10
9544;DHT22;30418;51.45933468;7.33152330;2023-06-22T00:03:56;27.70;45.20
9544;DHT22;30418;51.45933468;7.33152330;2023-06-22T00:06:24;27.70;46.10
9544;DHT22;30418;51.45933468;7.33152330;2023-06-22T00:08:53;27.70;45.50
9544;DHT22;30418;51.45933468;7.33152330;2023-06-22T00:11:22;27.70;45.50
9544;DHT22;30418;51.45933468;7.33152330;2023-06-22T00:13:51;27.60;45.50
9544;DHT22;30418;51.45933468;7.33152330;2023-06-22T00:16:20;27.50;45.40
9544;DHT22;30418;51.45933468;7.33152330;2023-06-22T00:18:48;27.50;45.50
9544;DHT22;30418;51.45933468;7.33152330;2023-06-22T00:21:18;27.50;45.60
9544;DHT22;30418;51.45933468;7.33152330;2023-06-22T00:23:47;27.50;45.90
9544;DHT22;30418;51.45933468;7.33152330;2023-06-22T00:26:16;27.40;45.90
9544;DHT22;30418;51.45933468;7.33152330;2023-06-22T00:28:44;27.40;46.00
9544;DHT22;30418;51.45933468;7.33152330;2023-06-22T00:31:13;27.40;46.00
9544;DHT22;30418;51.45933468;7.33152330;2023-06-22T00:33:42;27.40;46.10
9544;DHT22;30418;51.45933468;7.33152330;2023-06-22T00:36:10;27.40;46.10
9544;DHT22;30418;51.45933468;7.33152330;2023-06-22T00:38:44;27.30;46.20
9544;DHT22;30418;51.45933468;7.33152330;2023-06-22T00:41:12;27.30;46.30
9544;DHT22;30418;51.45933468;7.33152330;2023-06-22T00:43:41;27.30;46.40
9544;DHT22;30418;51.45933468;7.33152330;2023-06-22T00:46:09;27.30;46.50
9544;DHT22;30418;51.45933468;7.33152330;2023-06-22T00:48:38;27.30;46.60
9544;DHT22;30418;51.45933468;7.33152330;2023-06-22T00:51:11;27.30;46.80
9544;DHT22;30418;51.45933468;7.33152330;2023-06-22T00:53:39;27.20;46.70
9544;DHT22;30418;51.45933468;7.33152330;2023-06-22T00:56:10;27.30;46.80
9544;DHT22;30418;51.45933468;7.33152330;2023-06-22T00:58:39;27.20;46.90
9544;DHT22;30418;51.45933468;7.33152330;2023-06-22T01:01:09;27.20;46.90
9544;DHT22;30418;51.45933468;7.33152330;2023-06-22T01:03:37;27.20;46.90
9544;DHT22;30418;51.45933468;7.33152330;2023-06-22T01:06:09;27.10;46.90
9544;DHT22;30418;51.45933468;7.33152330;2023-06-22T01:08:44;27.10;47.70
9544;DHT22;30418;51.45933468;7.33152330;2023-06-22T01:11:21;27.10;47.20
9544;DHT22;30418;51.45933468;7.33152330;2023-06-22T01:13:59;27.10;47.20
9544;DHT22;30418;51.45933468;7.33152330;2023-06-22T01:16:31;27.10;47.40
9544;DHT22;30418;51.45933468;7.33152330;2023-06-22T01:19:09;27.10;47.20
9544;DHT22;30418;51.45933468;7.33152330;2023-06-22T01:21:49;27.10;47.40
9544;DHT22;30418;51.45933468;7.33152330;2023-06-22T01:24:25;27.10;47.30
9544;DHT22;30418;51.45933468;7.33152330;2023-06-22T01:27:05;27.00;47.30
9544;DHT22;30418;51.45933468;7.33152330;2023-06-22T01:29:39;27.00;47.50
9544;DHT22;30418;51.45933468;7.33152330;2023-06-22T01:32:10;26.90;47.30
9544;DHT22;30418;51.45933468;7.33152330;2023-06-22T01:34:40;26.90;47.50
9544;DHT22;30418;51.45933468;7.33152330;2023-06-22T01:37:09;26.90;47.60
9544;DHT22;30418;51.45933468;7.33152330;2023-06-22T01:39:38;26.90;47.60
9544;DHT22;30418;51.45933468;7.33152330;2023-06-22T01:42:07;26.90;47.60
9544;DHT22;30418;51.45933468;7.33152330;2023-06-22T01:44:41;26.90;47.60
9544;DHT22;30418;51.45933468;7.33152330;2023-06-22T01:47:10;26.90;47.70
9544;DHT22;30418;51.45933468;7.33152330;2023-06-22T01:49:43;26.90;47.70
9544;DHT22;30418;51.45933468;7.33152330;2023-06-22T01:52:12;26.90;47.60
9544;DHT22;30418;51.45933468;7.33152330;2023-06-22T01:54:41;26.80;47.70
9544;DHT22;30418;51.45933468;7.33152330;2023-06-22T01:57:10;26.80;47.90
9544;DHT22;30418;51.45933468;7.33152330;2023-06-22T01:59:46;26.80;47.90
9544;DHT22;30418;51.45933468;7.33152330;2023-06-22T02:02:20;26.80;48.10
9544;DHT22;30418;51.45933468;7.33152330;2023-06-22T02:04:57;26.80;48.10
9544;DHT22;30418;51.45933468;7.33152330;2023-06-22T02:07:31;26.80;48.20
9544;DHT22;30418;51.45933468;7.33152330;2023-06-22T02:10:03;26.80;48.20
9544;DHT22;30418;51.45933468;7.33152330;2023-06-22T02:12:35;26.80;48.30
9544;DHT22;30418;51.45933468;7.33152330;2023-06-22T02:15:07;26.70;48.20
9544;DHT22;30418;51.45933468;7.33152330;2023-06-22T02:17:37;26.80;48.40
9544;DHT22;30418;51.45933468;7.33152330;2023-06-22T02:20:07;26.70;48.40
9544;DHT22;30418;51.45933468;7.33152330;2023-06-22T02:22:41;26.80;48.50
9544;DHT22;30418;51.45933468;7.33152330;2023-06-22T02:25:10;26.70;48.50
9544;DHT22;30418;51.45933468;7.33152330;2023-06-22T02:27:39;26.70;48.50
9544;DHT22;30418;51.45933468;7.33152330;2023-06-22T02:30:10;26.70;48.60
9544;DHT22;30418;51.45933468;7.33152330;2023-06-22T02:32:41;26.70;48.60
9544;DHT22;30418;51.45933468;7.33152330;2023-06-22T02:35:10;26.70;48.50
9544;DHT22;30418;51.45933468;7.33152330;2023-06-22T02:37:39;26.70;49.20
9544;DHT22;30418;51.45933468;7.33152330;2023-06-22T02:40:09;26.70;48.60
9544;DHT22;30418;51.45933468;7.33152330;2023-06-22T02:42:39;26.70;48.80
9544;DHT22;30418;51.45933468;7.33152330;2023-06-22T02:45:10;26.60;48.70
9544;DHT22;30418;51.45933468;7.33152330;2023-06-22T02:47:38;26.60;48.70
9544;DHT22;30418;51.45933468;7.33152330;2023-06-22T02:50:08;26.60;48.70
9544;DHT22;30418;51.45933468;7.33152330;2023-06-22T02:52:36;26.60;49.50
9544;DHT22;30418;51.45933468;7.33152330;2023-06-22T02:55:07;26.50;48.80
9544;DHT22;30418;51.45933468;7.33152330;2023-06-22T02:57:36;26.50;48.90
9544;DHT22;30418;51.45933468;7.33152330;2023-06-22T03:00:13;26.50;48.90
9544;DHT22;30418;51.45933468;7.33152330;2023-06-22T03:02:47;26.50;49.10
9544;DHT22;30418;51.45933468;7.33152330;2023-06-22T03:05:17;26.50;49.10
9544;DHT22;30418;51.45933468;7.33152330;2023-06-22T03:07:47;26.50;49.10
9544;DHT22;30418;51.45933468;7.33152330;2023-06-22T03:10:16;26.40;49.10
9544;DHT22;30418;51.45933468;7.33152330;2023-06-22T03:12:44;26.40;49.20
9544;DHT22;30418;51.45933468;7.33152330;2023-06-22T03:15:14;26.40;49.30
9544;DHT22;30418;51.45933468;7.33152330;2023-06-22T03:17:44;26.40;49.40
9544;DHT22;30418;51.45933468;7.33152330;2023-06-22T03:20:12;26.40;49.40
9544;DHT22;30418;51.45933468;7.33152330;2023-06-22T03:22:42;26.30;50.00
9544;DHT22;30418;51.45933468;7.33152330;2023-06-22T03:25:11;26.30;49.50
9544;DHT22;30418;51.45933468;7.33152330;2023-06-22T03:27:43;26.30;49.50
9544;DHT22;30418;51.45933468;7.33152330;2023-06-22T03:30:14;26.20;49.50
9544;DHT22;30418;51.45933468;7.33152330;2023-06-22T03:32:45;26.20;49.60
9544;DHT22;30418;51.45933468;7.33152330;2023-06-22T03:35:14;26.20;49.70
9544;DHT22;30418;51.45933468;7.33152330;2023-06-22T03:37:42;26.10;49.70
9544;DHT22;30418;51.45933468;7.33152330;2023-06-22T03:40:12;26.10;49.80
9544;DHT22;30418;51.45933468;7.33152330;2023-06-22T03:42:40;26.10;49.80
9544;DHT22;30418;51.45933468;7.33152330;2023-06-22T03:45:10;26.10;49.90
9544;DHT22;30418;51.45933468;7.33152330;2023-06-22T03:47:40;26.00;50.00
9544;DHT22;30418;51.45933468;7.33152330;2023-06-22T03:50:09;26.00;50.10
9544;DHT22;30418;51.45933468;7.33152330;2023-06-22T03:52:38;26.00;50.20
9544;DHT22;30418;51.45933468;7.33152330;2023-06-22T03:55:07;25.90;50.10
9544;DHT22;30418;51.45933468;7.33152330;2023-06-22T03:57:36;25.90;50.20
9544;DHT22;30418;51.45933468;7.33152330;2023-06-22T04:00:05;25.90;50.30
9544;DHT22;30418;51.45933468;7.33152330;2023-06-22T04:02:41;25.90;50.60
9544;DHT22;30418;51.45933468;7.33152330;2023-06-22T04:05:11;25.90;50.70
9544;DHT22;30418;51.45933468;7.33152330;2023-06-22T04:07:39;25.90;50.70
9544;DHT22;30418;51.45933468;7.33152330;2023-06-22T04:10:08;25.90;50.80
9544;DHT22;30418;51.45933468;7.33152330;2023-06-22T04:12:39;25.90;51.00
9544;DHT22;30418;51.45933468;7.33152330;2023-06-22T04:15:08;25.90;50.90
9544;DHT22;30418;51.45933468;7.33152330;2023-06-22T04:17:40;25.90;51.00
9544;DHT22;30418;51.45933468;7.33152330;2023-06-22T04:20:09;25.90;51.00
9544;DHT22;30418;51.45933468;7.33152330;2023-06-22T04:22:38;25.90;51.00
9544;DHT22;30418;51.45933468;7.33152330;2023-06-22T04:25:07;26.00;51.10
9544;DHT22;30418;51.45933468;7.33152330;2023-06-22T04:27:35;26.00;51.10
9544;DHT22;30418;51.45933468;7.33152330;2023-06-22T04:30:08;26.00;51.10
9544;DHT22;30418;51.45933468;7.33152330;2023-06-22T04:32:37;26.00;51.10
9544;DHT22;30418;51.45933468;7.33152330;2023-06-22T04:35:08;26.00;51.10
9544;DHT22;30418;51.45933468;7.33152330;2023-06-22T04:37:37;26.10;51.30
9544;DHT22;30418;51.45933468;7.33152330;2023-06-22T04:40:07;26.10;51.20
9544;DHT22;30418;51.45933468;7.33152330;2023-06-22T04:42:38;26.10;51.20
9544;DHT22;30418;51.45933468;7.33152330;2023-06-22T04:45:07;26.10;51.30
9544;DHT22;30418;51.45933468;7.33152330;2023-06-22T04:47:37;26.10;51.20
9544;DHT22;30418;51.45933468;7.33152330;2023-06-22T04:50:09;26.10;51.20
9544;DHT22;30418;51.45933468;7.33152330;2023-06-22T04:52:37;26.10;51.30
9544;DHT22;30418;51.45933468;7.33152330;2023-06-22T04:55:07;26.20;51.40
9544;DHT22;30418;51.45933468;7.33152330;2023-06-22T04:57:36;26.20;51.50
9544;DHT22;30418;51.45933468;7.33152330;2023-06-22T05:00:07;26.20;51.40
9544;DHT22;30418;51.45933468;7.33152330;2023-06-22T05:02:41;26.20;51.50
9544;DHT22;30418;51.45933468;7.33152330;2023-06-22T05:05:11;26.20;51.40
9544;DHT22;30418;51.45933468;7.33152330;2023-06-22T05:07:42;26.20;51.50
9544;DHT22;30418;51.45933468;7.33152330;2023-06-22T05:10:12;26.20;51.50
9544;DHT22;30418;51.45933468;7.33152330;2023-06-22T05:12:41;26.20;51.50
9544;DHT22;30418;51.45933468;7.33152330;2023-06-22T05:15:10;26.20;51.50
9544;DHT22;30418;51.45933468;7.33152330;2023-06-22T05:17:39;26.20;51.40
9544;DHT22;30418;51.45933468;7.33152330;2023-06-22T05:20:12;26.20;51.40
9544;DHT22;30418;51.45933468;7.33152330;2023-06-22T05:22:45;26.20;51.40
9544;DHT22;30418;51.45933468;7.33152330;2023-06-22T05:25:13;26.20;51.40
9544;DHT22;30418;51.45933468;7.33152330;2023-06-22T05:27:42;26.20;51.40
9544;DHT22;30418;51.45933468;7.33152330;2023-06-22T05:30:12;26.20;51.50
9544;DHT22;30418;51.45933468;7.33152330;2023-06-22T05:32:40;26.20;51.50
9544;DHT22;30418;51.45933468;7.33152330;2023-06-22T05:35:12;26.20;51.90
9544;DHT22;30418;51.45933468;7.33152330;2023-06-22T05:37:40;26.20;51.40
9544;DHT22;30418;51.45933468;7.33152330;2023-06-22T05:40:10;26.20;51.30
9544;DHT22;30418;51.45933468;7.33152330;2023-06-22T05:42:40;26.20;51.50
9544;DHT22;30418;51.45933468;7.33152330;2023-06-22T05:45:09;26.20;51.30
9544;DHT22;30418;51.45933468;7.33152330;2023-06-22T05:47:38;26.20;51.40
9544;DHT22;30418;51.45933468;7.33152330;2023-06-22T05:50:07;26.20;51.30
9544;DHT22;30418;51.45933468;7.33152330;2023-06-22T05:52:55;26.20;51.30
9544;DHT22;30418;51.45933468;7.33152330;2023-06-22T05:55:23;26.20;51.40
9544;DHT22;30418;51.45933468;7.33152330;2023-06-22T05:57:52;26.20;51.30
9544;DHT22;30418;51.45933468;7.33152330;2023-06-22T06:00:21;26.20;51.20
9544;DHT22;30418;51.45933468;7.33152330;2023-06-22T06:02:50;26.20;51.30
9544;DHT22;30418;51.45933468;7.33152330;2023-06-22T06:05:19;26.20;51.30
9544;DHT22;30418;51.45933468;7.33152330;2023-06-22T06:07:47;26.30;51.50
9544;DHT22;30418;51.45933468;7.33152330;2023-06-22T06:10:17;26.30;51.40
9544;DHT22;30418;51.45933468;7.33152330;2023-06-22T06:12:46;26.30;51.50
9544;DHT22;30418;51.45933468;7.33152330;2023-06-22T06:15:15;26.30;51.50
9544;DHT22;30418;51.45933468;7.33152330;2023-06-22T06:17:47;26.30;51.50
9544;DHT22;30418;51.45933468;7.33152330;2023-06-22T06:20:17;26.30;51.60
9544;DHT22;30418;51.45933468;7.33152330;2023-06-22T06:22:47;26.30;51.50
9544;DHT22;30418;51.45933468;7.33152330;2023-06-22T06:25:19;26.30;51.60
9544;DHT22;30418;51.45933468;7.33152330;2023-06-22T06:27:50;26.40;51.80
9544;DHT22;30418;51.45933468;7.33152330;2023-06-22T06:30:21;26.40;51.90
9544;DHT22;30418;51.45933468;7.33152330;2023-06-22T06:32:50;26.40;52.00
9544;DHT22;30418;51.45933468;7.33152330;2023-06-22T06:35:19;26.40;52.00
9544;DHT22;30418;51.45933468;7.33152330;2023-06-22T06:37:50;26.40;52.00
9544;DHT22;30418;51.45933468;7.33152330;2023-06-22T06:40:20;26.40;52.10
9544;DHT22;30418;51.45933468;7.33152330;2023-06-22T06:42:49;26.40;52.10
9544;DHT22;30418;51.45933468;7.33152330;2023-06-22T06:45:19;26.50;52.20
9544;DHT22;30418;51.45933468;7.33152330;2023-06-22T06:47:50;26.50;52.20
9544;DHT22;30418;51.45933468;7.33152330;2023-06-22T06:50:21;26.50;52.10
9544;DHT22;30418;51.45933468;7.33152330;2023-06-22T06:52:49;26.50;52.10
9544;DHT22;30418;51.45933468;7.33152330;2023-06-22T06:55:20;26.50;52.20
9544;DHT22;30418;51.45933468;7.33152330;2023-06-22T06:57:51;26.50;52.30
9544;DHT22;30418;51.45933468;7.33152330;2023-06-22T07:00:20;26.50;52.30
9544;DHT22;30418;51.45933468;7.33152330;2023-06-22T07:02:50;26.50;52.40
9544;DHT22;30418;51.45933468;7.33152330;2023-06-22T07:05:18;26.60;52.50
9544;DHT22;30418;51.45933468;7.33152330;2023-06-22T07:07:47;26.60;52.50
9544;DHT22;30418;51.45933468;7.33152330;2023-06-22T07:10:16;26.60;52.40
9544;DHT22;30418;51.45933468;7.33152330;2023-06-22T07:12:45;26.60;52.50
9544;DHT22;30418;51.45933468;7.33152330;2023-06-22T07:15:14;26.60;52.50
9544;DHT22;30418;51.45933468;7.33152330;2023-06-22T07:17:43;26.60;52.50
9544;DHT22;30418;51.45933468;7.33152330;2023-06-22T07:20:12;26.70;52.60
9544;DHT22;30418;51.45933468;7.33152330;2023-06-22T07:22:44;26.60;52.60
9544;DHT22;30418;51.45933468;7.33152330;2023-06-22T07:25:13;26.70;52.80
9544;DHT22;30418;51.45933468;7.33152330;2023-06-22T07:28:00;26.70;52.80
9544;DHT22;30418;51.45933468;7.33152330;2023-06-22T07:30:30;26.70;53.10
9544;DHT22;30418;51.45933468;7.33152330;2023-06-22T07:33:00;26.70;52.80
9544;DHT22;30418;51.45933468;7.33152330;2023-06-22T07:35:31;26.60;52.70
9544;DHT22;30418;51.45933468;7.33152330;2023-06-22T07:38:00;26.60;52.80
9544;DHT22;30418;51.45933468;7.33152330;2023-06-22T07:40:32;26.60;53.10
9544;DHT22;30418;51.45933468;7.33152330;2023-06-22T07:43:03;26.60;53.30
9544;DHT22;30418;51.45933468;7.33152330;2023-06-22T07:45:32;26.60;53.70
9544;DHT22;30418;51.45933468;7.33152330;2023-06-22T07:48:02;26.60;54.10
9544;DHT22;30418;51.45933468;7.33152330;2023-06-22T07:50:31;26.60;54.30
9544;DHT22;30418;51.45933468;7.33152330;2023-06-22T07:52:59;26.50;54.70
9544;DHT22;30418;51.45933468;7.33152330;2023-06-22T07:55:28;26.50;55.60
9544;DHT22;30418;51.45933468;7.33152330;2023-06-22T07:57:56;26.50;55.00
9544;DHT22;30418;51.45933468;7.33152330;2023-06-22T08:00:26;26.40;54.90
9544;DHT22;30418;51.45933468;7.33152330;2023-06-22T08:02:55;26.40;54.90
9544;DHT22;30418;51.45933468;7.33152330;2023-06-22T08:05:24;26.40;55.20
9544;DHT22;30418;51.45933468;7.33152330;2023-06-22T08:07:54;26.40;55.30
9544;DHT22;30418;51.45933468;7.33152330;2023-06-22T08:10:23;26.30;55.60
9544;DHT22;30418;51.45933468;7.33152330;2023-06-22T08:12:52;26.30;55.70
9544;DHT22;30418;51.45933468;7.33152330;2023-06-22T08:15:21;26.20;55.90
9544;DHT22;30418;51.45933468;7.33152330;2023-06-22T08:17:51;26.20;56.00
9544;DHT22;30418;51.45933468;7.33152330;2023-06-22T08:20:20;26.20;56.40
9544;DHT22;30418;51.45933468;7.33152330;2023-06-22T08:22:49;26.20;56.30
9544;DHT22;30418;51.45933468;7.33152330;2023-06-22T08:25:17;26.20;56.40
9544;DHT22;30418;51.45933468;7.33152330;2023-06-22T08:27:46;26.20;56.30
9544;DHT22;30418;51.45933468;7.33152330;2023-06-22T08:30:16;26.20;56.70
9544;DHT22;30418;51.45933468;7.33152330;2023-06-22T08:32:45;26.20;56.80
9544;DHT22;30418;51.45933468;7.33152330;2023-06-22T08:35:15;26.20;56.80
9544;DHT22;30418;51.45933468;7.33152330;2023-06-22T08:37:44;26.20;57.00
9544;DHT22;30418;51.45933468;7.33152330;2023-06-22T08:40:19;26.20;57.00
9544;DHT22;30418;51.45933468;7.33152330;2023-06-22T08:42:48;26.20;57.20
9544;DHT22;30418;51.45933468;7.33152330;2023-06-22T08:45:17;26.20;57.40
9544;DHT22;30418;51.45933468;7.33152330;2023-06-22T08:47:45;26.30;57.60
9544;DHT22;30418;51.45933468;7.33152330;2023-06-22T08:50:15;26.40;57.90
9544;DHT22;30418;51.45933468;7.33152330;2023-06-22T08:52:44;26.50;58.00
9544;DHT22;30418;51.45933468;7.33152330;2023-06-22T08:55:12;26.50;57.90
9544;DHT22;30418;51.45933468;7.33152330;2023-06-22T08:57:41;26.60;57.90
9544;DHT22;30418;51.45933468;7.33152330;2023-06-22T09:00:11;26.60;57.80
9544;DHT22;30418;51.45933468;7.33152330;2023-06-22T09:02:45;26.70;58.00
9544;DHT22;30418;51.45933468;7.33152330;2023-06-22T09:05:15;26.80;58.10
9544;DHT22;30418;51.45933468;7.33152330;2023-06-22T09:07:45;26.90;58.60
9544;DHT22;30418;51.45933468;7.33152330;2023-06-22T09:10:14;26.90;58.50
9544;DHT22;30418;51.45933468;7.33152330;2023-06-22T09:12:43;27.10;58.30
9544;DHT22;30418;51.45933468;7.33152330;2023-06-22T09:15:11;27.10;58.10
9544;DHT22;30418;51.45933468;7.33152330;2023-06-22T09:17:53;27.30;58.20
9544;DHT22;30418;51.45933468;7.33152330;2023-06-22T09:20:23;27.40;58.30
9544;DHT22;30418;51.45933468;7.33152330;2023-06-22T09:22:52;27.50;57.80
9544;DHT22;30418;51.45933468;7.33152330;2023-06-22T09:25:21;27.50;57.30
9544;DHT22;30418;51.45933468;7.33152330;2023-06-22T09:27:49;27.60;57.10
9544;DHT22;30418;51.45933468;7.33152330;2023-06-22T09:30:18;27.70;57.10
9544;DHT22;30418;51.45933468;7.33152330;2023-06-22T09:32:47;27.80;57.20
9544;DHT22;30418;51.45933468;7.33152330;2023-06-22T09:35:16;27.90;57.10
9544;DHT22;30418;51.45933468;7.33152330;2023-06-22T09:37:45;28.00;56.90
9544;DHT22;30418;51.45933468;7.33152330;2023-06-22T09:40:14;28.10;56.80
9544;DHT22;30418;51.45933468;7.33152330;2023-06-22T09:42:44;28.20;56.70
9544;DHT22;30418;51.45933468;7.33152330;2023-06-22T09:45:12;28.30;56.40
9544;DHT22;30418;51.45933468;7.33152330;2023-06-22T09:47:41;28.50;56.20
9544;DHT22;30418;51.45933468;7.33152330;2023-06-22T09:50:10;28.50;55.80
9544;DHT22;30418;51.45933468;7.33152330;2023-06-22T09:52:39;28.60;55.80
9544;DHT22;30418;51.45933468;7.33152330;2023-06-22T09:55:16;28.60;55.60
9544;DHT22;30418;51.45933468;7.33152330;2023-06-22T09:57:44;28.70;55.30
9544;DHT22;30418;51.45933468;7.33152330;2023-06-22T10:00:14;28.70;55.20
9544;DHT22;30418;51.45933468;7.33152330;2023-06-22T10:02:44;28.70;55.20
9544;DHT22;30418;51.45933468;7.33152330;2023-06-22T10:05:13;28.80;54.90
9544;DHT22;30418;51.45933468;7.33152330;2023-06-22T10:07:42;28.80;54.80
9544;DHT22;30418;51.45933468;7.33152330;2023-06-22T10:10:12;28.90;54.60
9544;DHT22;30418;51.45933468;7.33152330;2023-06-22T10:12:47;28.90;54.50
9544;DHT22;30418;51.45933468;7.33152330;2023-06-22T10:15:16;28.90;54.50
9544;DHT22;30418;51.45933468;7.33152330;2023-06-22T10:17:45;28.90;54.30
9544;DHT22;30418;51.45933468;7.33152330;2023-06-22T10:20:14;28.90;54.30
9544;DHT22;30418;51.45933468;7.33152330;2023-06-22T10:22:44;28.90;54.30
9544;DHT22;30418;51.45933468;7.33152330;2023-06-22T10:25:13;28.90;54.40
9544;DHT22;30418;51.45933468;7.33152330;2023-06-22T10:27:42;28.90;54.30
9544;DHT22;30418;51.45933468;7.33152330;2023-06-22T10:30:13;28.90;54.50
9544;DHT22;30418;51.45933468;7.33152330;2023-06-22T10:32:42;28.90;54.50
9544;DHT22;30418;51.45933468;7.33152330;2023-06-22T10:35:11;29.00;54.60
9544;DHT22;30418;51.45933468;7.33152330;2023-06-22T10:37:43;29.00;54.80
9544;DHT22;30418;51.45933468;7.33152330;2023-06-22T10:40:14;29.00;55.00
9544;DHT22;30418;51.45933468;7.33152330;2023-06-22T10:42:44;29.00;54.90
9544;DHT22;30418;51.45933468;7.33152330;2023-06-22T10:45:14;29.10;55.40
9544;DHT22;30418;51.45933468;7.33152330;2023-06-22T10:47:43;29.10;54.80
9544;DHT22;30418;51.45933468;7.33152330;2023-06-22T10:50:12;29.10;54.90
9544;DHT22;30418;51.45933468;7.33152330;2023-06-22T10:52:40;29.20;55.00
9544;DHT22;30418;51.45933468;7.33152330;2023-06-22T10:55:09;29.20;55.10
9544;DHT22;30418;51.45933468;7.33152330;2023-06-22T10:57:38;29.20;55.00
9544;DHT22;30418;51.45933468;7.33152330;2023-06-22T11:00:11;29.20;54.90
9544;DHT22;30418;51.45933468;7.33152330;2023-06-22T11:02:42;29.30;54.90
9544;DHT22;30418;51.45933468;7.33152330;2023-06-22T11:05:12;29.30;55.60
9544;DHT22;30418;51.45933468;7.33152330;2023-06-22T11:07:42;29.30;54.90
9544;DHT22;30418;51.45933468;7.33152330;2023-06-22T11:10:13;29.30;54.70
9544;DHT22;30418;51.45933468;7.33152330;2023-06-22T11:12:42;29.30;54.70
9544;DHT22;30418;51.45933468;7.33152330;2023-06-22T11:15:10;29.30;54.50
9544;DHT22;30418;51.45933468;7.33152330;2023-06-22T11:17:41;29.20;54.50
9544;DHT22;30418;51.45933468;7.33152330;2023-06-22T11:20:10;29.20;54.40
9544;DHT22;30418;51.45933468;7.33152330;2023-06-22T11:22:40;29.20;54.60
9544;DHT22;30418;51.45933468;7.33152330;2023-06-22T11:25:09;29.20;54.60
9544;DHT22;30418;51.45933468;7.33152330;2023-06-22T11:27:39;29.20;55.00
9544;DHT22;30418;51.45933468;7.33152330;2023-06-22T11:30:08;29.10;55.40
9544;DHT22;30418;51.45933468;7.33152330;2023-06-22T11:32:37;29.10;56.00
9544;DHT22;30418;51.45933468;7.33152330;2023-06-22T11:35:08;29.00;56.10
9544;DHT22;30418;51.45933468;7.33152330;2023-06-22T11:37:36;29.00;56.40
9544;DHT22;30418;51.45933468;7.33152330;2023-06-22T11:40:06;29.00;56.50
9544;DHT22;30418;51.45933468;7.33152330;2023-06-22T11:42:36;28.90;56.90
9544;DHT22;30418;51.45933468;7.33152330;2023-06-22T11:45:06;28.80;56.80
9544;DHT22;30418;51.45933468;7.33152330;2023-06-22T11:47:35;28.80;57.20
9544;DHT22;30418;51.45933468;7.33152330;2023-06-22T11:50:05;28.70;57.40
9544;DHT22;30418;51.45933468;7.33152330;2023-06-22T11:52:36;28.60;57.40
9544;DHT22;30418;51.45933468;7.33152330;2023-06-22T11:55:05;28.50;57.50
9544;DHT22;30418;51.45933468;7.33152330;2023-06-22T11:57:36;28.40;57.50
9544;DHT22;30418;51.45933468;7.33152330;2023-06-22T12:00:06;28.40;57.80
9544;DHT22;30418;51.45933468;7.33152330;2023-06-22T12:02:45;28.30;57.80
9544;DHT22;30418;51.45933468;7.33152330;2023-06-22T12:05:15;28.20;58.00
9544;DHT22;30418;51.45933468;7.33152330;2023-06-22T12:07:44;28.10;58.50
9544;DHT22;30418;51.45933468;7.33152330;2023-06-22T12:10:12;28.00;58.50
9544;DHT22;30418;51.45933468;7.33152330;2023-06-22T12:12:41;28.00;58.90
9544;DHT22;30418;51.45933468;7.33152330;2023-06-22T12:15:10;27.90;58.80
9544;DHT22;30418;51.45933468;7.33152330;2023-06-22T12:17:40;27.80;58.90
9544;DHT22;30418;51.45933468;7.33152330;2023-06-22T12:20:09;27.70;59.10
9544;DHT22;30418;51.45933468;7.33152330;2023-06-22T12:22:40;27.70;59.30
9544;DHT22;30418;51.45933468;7.33152330;2023-06-22T12:25:09;27.60;59.50
9544;DHT22;30418;51.45933468;7.33152330;2023-06-22T12:27:38;27.60;59.40
9544;DHT22;30418;51.45933468;7.33152330;2023-06-22T12:30:08;27.60;59.50
9544;DHT22;30418;51.45933468;7.33152330;2023-06-22T12:32:36;27.50;59.70
9544;DHT22;30418;51.45933468;7.33152330;2023-06-22T12:35:06;27.40;59.70
9544;DHT22;30418;51.45933468;7.33152330;2023-06-22T12:37:42;27.40;60.00
9544;DHT22;30418;51.45933468;7.33152330;2023-06-22T12:40:11;27.40;60.10
9544;DHT22;30418;51.45933468;7.33152330;2023-06-22T12:42:40;27.30;60.10
9544;DHT22;30418;51.45933468;7.33152330;2023-06-22T12:45:10;27.30;60.20
9544;DHT22;30418;51.45933468;7.33152330;2023-06-22T12:47:38;27.20;60.30
9544;DHT22;30418;51.45933468;7.33152330;2023-06-22T12:50:07;27.10;60.40
9544;DHT22;30418;51.45933468;7.33152330;2023-06-22T12:52:37;27.00;60.30
9544;DHT22;30418;51.45933468;7.33152330;2023-06-22T12:55:10;26.90;60.20
9544;DHT22;30418;51.45933468;7.33152330;2023-06-22T12:57:38;26.90;61.30
9544;DHT22;30418;51.45933468;7.33152330;2023-06-22T13:00:08;26.80;60.70
9544;DHT22;30418;51.45933468;7.33152330;2023-06-22T13:02:38;26.80;61.00
9544;DHT22;30418;51.45933468;7.33152330;2023-06-22T13:05:07;26.80;61.30
9544;DHT22;30418;51.45933468;7.33152330;2023-06-22T13:07:36;26.70;61.50
9544;DHT22;30418;51.45933468;7.33152330;2023-06-22T13:10:06;26.70;61.80
9544;DHT22;30418;51.45933468;7.33152330;2023-06-22T13:12:36;26.70;62.20
9544;DHT22;30418;51.45933468;7.33152330;2023-06-22T13:15:06;26.70;62.70
9544;DHT22;30418;51.45933468;7.33152330;2023-06-22T13:17:35;26.70;63.00
9544;DHT22;30418;51.45933468;7.33152330;2023-06-22T13:20:04;26.80;63.40
9544;DHT22;30418;51.45933468;7.33152330;2023-06-22T13:22:35;26.80;63.50
9544;DHT22;30418;51.45933468;7.33152330;2023-06-22T13:25:08;26.90;63.50
9544;DHT22;30418;51.45933468;7.33152330;2023-06-22T13:27:42;26.90;63.50
9544;DHT22;30418;51.45933468;7.33152330;2023-06-22T13:30:11;27.00;63.90
9544;DHT22;30418;51.45933468;7.33152330;2023-06-22T13:32:41;27.10;63.70
9544;DHT22;30418;51.45933468;7.33152330;2023-06-22T13:35:11;27.20;63.70
9544;DHT22;30418;51.45933468;7.33152330;2023-06-22T13:37:40;27.30;63.80
9544;DHT22;30418;51.45933468;7.33152330;2023-06-22T13:40:09;27.40;63.50
9544;DHT22;30418;51.45933468;7.33152330;2023-06-22T13:42:38;27.40;63.30
9544;DHT22;30418;51.45933468;7.33152330;2023-06-22T13:45:08;27.40;63.10
9544;DHT22;30418;51.45933468;7.33152330;2023-06-22T13:47:38;27.40;63.10
9544;DHT22;30418;51.45933468;7.33152330;2023-06-22T13:50:07;27.50;62.80